Time;durP1;ratioP1;P1;durP2;ratioP2;P2;SDS_P1;SDS_P2;PMS_P1;PMS_P2;Temp;Humidity;BMP_temperature;BMP_pressure;BME280_temperature;BME280_humidity;BME280_pressure;Samples;Min_cycle;Max_cycle;Signal;HPM_P1;HPM_P2
2022/04/27 00:01:54;;;;;;;3.40;1.35;;;13.70;48.70;;;;;;5155595;27;20045;-69
2022/04/27 00:04:19;;;;;;;2.38;1.30;;;13.70;48.70;;;;;;5156474;27;20106;-69
2022/04/27 00:06:45;;;;;;;1.25;1.00;;;13.60;48.70;;;;;;5156217;27;20370;-69
2022/04/27 00:09:12;;;;;;;1.65;1.08;;;13.60;49.50;;;;;;5174958;27;20049;-69
2022/04/27 00:11:38;;;;;;;2.58;1.17;;;13.60;48.70;;;;;;5175017;27;20034;-69
2022/04/27 00:14:04;;;;;;;2.70;1.40;;;13.60;48.70;;;;;;5156462;27;20042;-64
2022/04/27 00:16:30;;;;;;;3.65;1.30;;;13.60;48.70;;;;;;5156241;27;20053;-67
2022/04/27 00:18:56;;;;;;;1.77;1.67;;;13.60;48.70;;;;;;5173935;27;20039;-71
2022/04/27 00:21:22;;;;;;;2.83;1.38;;;13.60;48.70;;;;;;5156032;27;20408;-68
2022/04/27 00:23:48;;;;;;;1.30;0.93;;;13.60;48.70;;;;;;5156154;27;20128;-69
2022/04/27 00:26:14;;;;;;;1.60;1.00;;;13.60;48.70;;;;;;5155977;27;20480;-70
2022/04/27 00:28:39;;;;;;;1.92;1.27;;;13.50;48.60;;;;;;5155983;27;20053;-69
2022/04/27 00:31:05;;;;;;;2.08;1.40;;;13.50;48.60;;;;;;5155806;27;20042;-70
2022/04/27 00:33:34;;;;;;;1.65;1.52;;;13.50;48.60;;;;;;5155895;27;20129;-69
2022/04/27 00:36:00;;;;;;;1.25;1.08;;;13.50;48.70;;;;;;5174640;27;20081;-69
2022/04/27 00:38:26;;;;;;;2.85;1.50;;;13.50;48.70;;;;;;5156126;27;20070;-69
2022/04/27 00:40:51;;;;;;;1.75;1.27;;;13.50;48.70;;;;;;5156036;27;20030;-67
2022/04/27 00:43:35;;;;;;;1.73;1.08;;;13.50;48.70;;;;;;5155936;27;20370;-69
2022/04/27 00:46:01;;;;;;;2.05;1.35;;;13.50;48.70;;;;;;5155951;27;20042;-64
2022/04/27 00:48:26;;;;;;;1.85;1.10;;;13.40;48.70;;;;;;5174616;27;20042;-69
2022/04/27 00:50:56;;;;;;;2.53;1.58;;;13.40;48.60;;;;;;5155975;27;20042;-69
2022/04/27 00:53:24;;;;;;;1.08;0.90;;;13.40;48.60;;;;;;5174619;27;20131;-63
2022/04/27 00:55:50;;;;;;;2.25;1.70;;;13.40;48.60;;;;;;5155639;27;20117;-69
2022/04/27 00:58:18;;;;;;;2.15;1.33;;;13.40;48.60;;;;;;5174248;27;20041;-67
2022/04/27 01:00:43;;;;;;;1.17;1.05;;;13.40;48.70;;;;;;5155592;27;20035;-70
2022/04/27 01:03:09;;;;;;;1.50;1.20;;;13.40;48.70;;;;;;5174352;27;20053;-67
2022/04/27 01:05:37;;;;;;;2.25;1.23;;;13.40;48.70;;;;;;5155599;27;20043;-70
2022/04/27 01:08:03;;;;;;;1.88;1.40;;;13.40;48.70;;;;;;5155762;27;20038;-69
2022/04/27 01:10:29;;;;;;;1.98;1.40;;;13.30;48.60;;;;;;5155574;27;20389;-67
2022/04/27 01:12:57;;;;;;;2.38;1.52;;;13.30;48.60;;;;;;5155473;27;20034;-69
2022/04/27 01:15:37;;;;;;;1.70;1.17;;;13.30;48.70;;;;;;5174172;27;20064;-68
2022/04/27 01:18:04;;;;;;;1.33;0.90;;;13.30;48.70;;;;;;5174291;27;20030;-69
2022/04/27 01:20:32;;;;;;;1.65;1.23;;;13.30;48.70;;;;;;5155800;27;20117;-69
2022/04/27 01:22:59;;;;;;;1.38;0.98;;;13.30;49.40;;;;;;5155532;27;20170;-69
2022/04/27 01:25:24;;;;;;;2.40;1.17;;;13.30;48.70;;;;;;5155368;27;20451;-69
2022/04/27 01:27:50;;;;;;;1.13;0.90;;;13.30;48.70;;;;;;5155599;27;20133;-69
2022/04/27 01:30:16;;;;;;;2.85;1.10;;;13.30;48.70;;;;;;5173928;27;20030;-69
2022/04/27 01:32:41;;;;;;;1.83;1.40;;;13.30;48.70;;;;;;5155346;27;20489;-65
2022/04/27 01:35:07;;;;;;;2.50;1.35;;;13.20;48.70;;;;;;5174058;27;20034;-69
2022/04/27 01:38:04;;;;;;;2.35;1.20;;;13.30;48.70;;;;;;5155774;27;20090;-68
2022/04/27 01:40:18;;;;;;;1.40;1.27;;;13.20;48.70;;;;;;5155092;27;20054;-69
2022/04/27 01:42:44;;;;;;;1.75;1.00;;;13.20;48.70;;;;;;5155435;27;20053;-69
2022/04/27 01:45:13;;;;;;;1.80;0.93;;;13.30;48.70;;;;;;5154879;27;20129;-69
2022/04/27 01:47:38;;;;;;;2.05;1.27;;;13.20;48.70;;;;;;5173979;27;20035;-68
2022/04/27 01:50:04;;;;;;;2.95;1.35;;;13.20;48.60;;;;;;5155429;27;20052;-69
2022/04/27 01:55:15;;;;;;;2.70;1.40;;;13.20;48.70;;;;;;5158615;27;20042;-69
2022/04/27 01:57:41;;;;;;;1.42;1.27;;;13.20;48.70;;;;;;5158740;27;20117;-67
2022/04/27 02:00:07;;;;;;;2.10;1.10;;;13.20;48.70;;;;;;5158840;27;20082;-68
2022/04/27 02:02:33;;;;;;;1.55;1.38;;;13.20;48.70;;;;;;5158747;27;20038;-65
2022/04/27 02:04:59;;;;;;;2.10;1.42;;;13.20;48.60;;;;;;5158652;27;20043;-64
2022/04/27 02:07:25;;;;;;;1.67;1.48;;;13.20;48.70;;;;;;5177392;27;20393;-69
2022/04/27 02:09:51;;;;;;;1.52;1.02;;;13.10;48.60;;;;;;5158806;27;20046;-69
2022/04/27 02:12:17;;;;;;;3.00;1.55;;;13.10;48.70;;;;;;5177194;27;20030;-64
2022/04/27 02:14:42;;;;;;;1.85;1.10;;;13.10;48.60;;;;;;5177071;27;20041;-69
2022/04/27 02:17:08;;;;;;;2.28;1.17;;;13.10;48.60;;;;;;5177141;27;20472;-63
2022/04/27 02:19:34;;;;;;;2.15;0.80;;;13.10;48.60;;;;;;5177030;27;20042;-70
2022/04/27 02:21:59;;;;;;;1.27;0.75;;;13.10;48.60;;;;;;5158466;27;20528;-70
2022/04/27 02:24:26;;;;;;;1.83;1.15;;;13.10;48.60;;;;;;5158336;27;20114;-69
2022/04/27 02:26:54;;;;;;;1.52;1.05;;;13.10;48.60;;;;;;5158433;27;20091;-69
2022/04/27 02:29:21;;;;;;;2.40;1.02;;;13.00;48.50;;;;;;5158280;27;20049;-69
2022/04/27 02:31:46;;;;;;;2.33;0.93;;;13.00;48.50;;;;;;5158061;27;20042;-68
2022/04/27 02:34:12;;;;;;;2.15;1.20;;;13.00;48.50;;;;;;5158183;27;20073;-68
2022/04/27 02:36:37;;;;;;;1.75;0.90;;;13.00;48.60;;;;;;5176807;27;20034;-66
2022/04/27 02:39:03;;;;;;;1.73;1.17;;;13.00;48.50;;;;;;5176784;27;20395;-68
2022/04/27 02:41:29;;;;;;;1.33;1.08;;;13.00;48.50;;;;;;5157942;27;20042;-69
2022/04/27 02:43:55;;;;;;;1.80;0.90;;;12.90;48.50;;;;;;5157822;27;20052;-65
2022/04/27 02:46:21;;;;;;;2.22;1.35;;;12.90;48.50;;;;;;5158120;27;20042;-63
2022/04/27 02:52:03;;;;;;;1.90;1.17;;;13.00;49.30;;;;;;5176211;27;20038;-64
2022/04/27 02:54:20;;;;;;;1.88;1.20;;;12.90;48.50;;;;;;5176779;27;20154;-64
2022/04/27 02:56:45;;;;;;;1.85;1.05;;;12.90;48.60;;;;;;5157864;27;20034;-68
2022/04/27 02:59:11;;;;;;;2.33;1.20;;;12.90;48.60;;;;;;5176492;27;20052;-68
2022/04/27 03:01:38;;;;;;;1.60;1.08;;;12.90;48.60;;;;;;5157863;27;20110;-67
2022/04/27 03:04:06;;;;;;;2.45;1.10;;;12.90;48.50;;;;;;5176525;27;20129;-64
2022/04/27 03:06:31;;;;;;;1.98;1.20;;;12.90;48.60;;;;;;5176110;27;20049;-63
2022/04/27 03:08:57;;;;;;;1.40;1.25;;;12.90;48.60;;;;;;5157675;27;20034;-63
2022/04/27 03:11:22;;;;;;;2.88;1.58;;;12.90;48.60;;;;;;5157404;27;20484;-65
2022/04/27 03:13:48;;;;;;;1.60;1.13;;;12.90;48.60;;;;;;5157408;27;20038;-69
2022/04/27 03:16:14;;;;;;;2.45;0.90;;;12.80;48.50;;;;;;5157492;27;20046;-69
2022/04/27 03:18:39;;;;;;;1.95;0.82;;;12.90;48.60;;;;;;5157253;27;20605;-69
2022/04/27 03:21:05;;;;;;;1.20;0.80;;;12.80;48.50;;;;;;5175850;27;20046;-70
2022/04/27 03:23:33;;;;;;;2.72;0.98;;;12.90;48.60;;;;;;5175673;27;20588;-64
2022/04/27 03:25:59;;;;;;;1.27;0.95;;;12.80;48.60;;;;;;5157129;27;20146;-69
2022/04/27 03:28:25;;;;;;;1.58;1.00;;;12.80;48.60;;;;;;5175639;27;20035;-69
2022/04/27 03:30:50;;;;;;;1.30;0.93;;;12.80;48.60;;;;;;5157005;27;20046;-63
2022/04/27 03:33:17;;;;;;;3.83;1.40;;;12.80;48.60;;;;;;5156875;27;20038;-69
2022/04/27 03:35:42;;;;;;;1.38;0.80;;;12.80;48.70;;;;;;5157125;27;20026;-68
2022/04/27 03:38:09;;;;;;;1.58;0.93;;;12.80;48.70;;;;;;5156810;27;20397;-69
2022/04/27 03:40:35;;;;;;;1.65;1.30;;;12.80;48.70;;;;;;5175392;27;20034;-64
2022/04/27 03:43:01;;;;;;;1.50;0.93;;;12.80;48.70;;;;;;5175579;27;20052;-68
2022/04/27 03:45:27;;;;;;;1.63;1.10;;;12.80;48.70;;;;;;5175002;27;20046;-63
2022/04/27 03:47:53;;;;;;;1.67;0.93;;;12.80;48.70;;;;;;5156636;27;20046;-65
2022/04/27 03:50:18;;;;;;;2.25;0.95;;;12.80;48.80;;;;;;5156770;27;20054;-69
2022/04/27 03:52:44;;;;;;;2.05;0.73;;;12.80;48.80;;;;;;5156749;27;20042;-68
2022/04/27 03:55:11;;;;;;;1.70;0.90;;;12.80;48.80;;;;;;5175191;27;20042;-69
2022/04/27 03:57:37;;;;;;;1.77;0.85;;;12.80;48.90;;;;;;5156695;27;20038;-69
2022/04/27 04:00:05;;;;;;;3.17;1.15;;;12.80;48.90;;;;;;5174435;27;20065;-64
2022/04/27 04:02:31;;;;;;;2.35;0.90;;;12.80;48.90;;;;;;5156212;27;20038;-63
2022/04/27 04:04:56;;;;;;;1.77;1.20;;;12.80;48.90;;;;;;5156245;27;20122;-64
2022/04/27 04:07:22;;;;;;;2.22;1.00;;;12.80;48.90;;;;;;5175074;27;20069;-70
2022/04/27 04:09:47;;;;;;;1.35;0.90;;;12.80;48.90;;;;;;5174858;27;20034;-71
2022/04/27 04:12:13;;;;;;;2.15;0.85;;;12.80;48.90;;;;;;5174951;27;20038;-67
2022/04/27 04:14:40;;;;;;;1.98;1.25;;;12.80;49.00;;;;;;5155939;27;20038;-69
2022/04/27 04:17:06;;;;;;;2.78;1.35;;;12.80;48.90;;;;;;5175024;27;20034;-69
2022/04/27 04:19:32;;;;;;;1.85;0.80;;;12.80;48.90;;;;;;5174822;27;20049;-69
2022/04/27 04:21:59;;;;;;;1.92;1.30;;;12.80;48.90;;;;;;5174852;27;20077;-69
2022/04/27 04:24:25;;;;;;;1.38;0.90;;;12.80;48.90;;;;;;5155830;27;20038;-69
2022/04/27 04:29:37;;;;;;;1.73;1.08;;;12.80;48.90;;;;;;5155735;27;20053;-69
2022/04/27 04:32:03;;;;;;;1.65;1.10;;;12.80;48.90;;;;;;5174703;27;20064;-68
2022/04/27 04:34:29;;;;;;;1.38;0.77;;;12.80;48.90;;;;;;5155875;27;20041;-69
2022/04/27 04:36:54;;;;;;;1.67;1.10;;;12.80;49.00;;;;;;5156053;27;20030;-63
2022/04/27 04:39:20;;;;;;;0.95;0.70;;;12.80;48.90;;;;;;5155882;27;20137;-65
2022/04/27 04:41:46;;;;;;;1.75;1.00;;;12.80;49.00;;;;;;5155879;27;20390;-64
2022/04/27 04:44:11;;;;;;;2.13;0.80;;;12.80;48.90;;;;;;5174057;27;20133;-69
2022/04/27 04:46:37;;;;;;;2.40;1.33;;;12.80;48.90;;;;;;5155738;27;20451;-69
2022/04/27 04:49:03;;;;;;;3.53;1.17;;;12.80;48.90;;;;;;5174745;27;20037;-63
2022/04/27 04:51:29;;;;;;;2.03;0.75;;;12.80;49.00;;;;;;5155762;27;20038;-69
2022/04/27 04:53:54;;;;;;;1.42;1.02;;;12.80;48.90;;;;;;5174284;27;20132;-69
2022/04/27 04:56:20;;;;;;;2.15;1.08;;;12.80;48.90;;;;;;5155838;27;20042;-69
2022/04/27 04:58:47;;;;;;;1.88;1.00;;;12.80;48.90;;;;;;5174253;27;20456;-63
2022/04/27 05:01:13;;;;;;;2.40;1.27;;;12.80;48.90;;;;;;5155849;27;20069;-63
2022/04/27 05:03:38;;;;;;;0.90;0.70;;;12.80;48.90;;;;;;5155546;27;20074;-66
2022/04/27 05:06:04;;;;;;;2.10;0.85;;;12.80;48.90;;;;;;5155731;27;20030;-69
2022/04/27 05:08:30;;;;;;;2.03;1.05;;;12.80;48.90;;;;;;5155466;27;20034;-67
2022/04/27 05:10:56;;;;;;;2.38;0.85;;;12.80;48.90;;;;;;5155489;27;20034;-69
2022/04/27 05:13:22;;;;;;;1.50;0.88;;;12.80;48.90;;;;;;5155646;27;20050;-66
2022/04/27 05:15:48;;;;;;;2.08;0.98;;;12.80;48.90;;;;;;5155443;27;20038;-71
2022/04/27 05:18:14;;;;;;;1.60;0.90;;;12.90;49.00;;;;;;5154742;27;20042;-69
2022/04/27 05:20:40;;;;;;;1.10;0.90;;;12.80;48.90;;;;;;5155431;27;20048;-64
2022/04/27 05:23:06;;;;;;;1.65;0.80;;;12.80;48.90;;;;;;5155541;27;20172;-64
2022/04/27 05:25:34;;;;;;;1.17;0.90;;;12.90;48.90;;;;;;5155208;27;20044;-71
2022/04/27 05:28:02;;;;;;;1.13;0.80;;;12.90;48.90;;;;;;5159739;27;20504;-66
2022/04/27 05:33:17;;;;;;;1.85;0.80;;;12.90;49.00;;;;;;5159422;27;20094;-68
2022/04/27 05:35:43;;;;;;;1.75;1.40;;;12.90;49.00;;;;;;5159553;27;20121;-68
2022/04/27 05:38:12;;;;;;;1.67;1.13;;;12.90;49.00;;;;;;5159050;27;20065;-64
2022/04/27 05:40:41;;;;;;;2.20;1.20;;;12.90;49.00;;;;;;5159447;27;20384;-68
2022/04/27 05:43:07;;;;;;;3.50;1.08;;;12.90;49.00;;;;;;5159339;27;20046;-69
2022/04/27 05:45:33;;;;;;;1.30;1.13;;;12.90;49.00;;;;;;5141432;27;20042;-71
2022/04/27 05:48:00;;;;;;;1.50;1.17;;;12.90;49.70;;;;;;5159220;27;20129;-69
2022/04/27 05:50:26;;;;;;;1.75;0.90;;;12.90;49.00;;;;;;5159587;27;20058;-69
2022/04/27 05:52:54;;;;;;;1.50;1.08;;;12.90;49.00;;;;;;5159075;27;20034;-69
2022/04/27 05:55:20;;;;;;;1.42;0.80;;;12.90;49.00;;;;;;5158923;27;20042;-70
2022/04/27 05:57:46;;;;;;;2.30;0.85;;;12.90;49.00;;;;;;5159038;27;20090;-64
2022/04/27 06:00:13;;;;;;;2.40;1.33;;;12.90;49.00;;;;;;5159079;27;20493;-66
2022/04/27 06:02:39;;;;;;;1.85;1.10;;;12.90;49.00;;;;;;5177510;27;20034;-69
2022/04/27 06:05:07;;;;;;;2.13;0.90;;;12.90;49.00;;;;;;5177434;27;20154;-69
2022/04/27 06:07:36;;;;;;;1.90;1.27;;;12.90;49.00;;;;;;5177235;27;20079;-64
2022/04/27 06:10:04;;;;;;;2.92;1.13;;;12.90;49.00;;;;;;5158614;27;20121;-69
2022/04/27 06:12:35;;;;;;;2.05;1.00;;;12.90;49.00;;;;;;5158560;27;20545;-63
2022/04/27 06:15:05;;;;;;;3.13;0.90;;;13.00;49.10;;;;;;5158884;27;20084;-69
2022/04/27 06:17:31;;;;;;;1.67;1.20;;;12.90;49.00;;;;;;5158723;27;20045;-70
2022/04/27 06:19:58;;;;;;;1.13;0.95;;;13.00;49.00;;;;;;5177010;27;20030;-68
2022/04/27 06:22:23;;;;;;;1.63;0.85;;;13.00;49.10;;;;;;5158616;27;20116;-69
2022/04/27 06:24:49;;;;;;;2.17;0.98;;;13.00;49.10;;;;;;5158260;27;20544;-64
2022/04/27 06:27:15;;;;;;;1.90;1.20;;;13.00;49.10;;;;;;5178427;27;20046;-69
2022/04/27 06:29:43;;;;;;;1.48;0.98;;;13.00;49.10;;;;;;5159098;27;20070;-64
2022/04/27 06:32:09;;;;;;;1.65;1.02;;;13.10;49.10;;;;;;5158896;27;20103;-68
2022/04/27 06:34:34;;;;;;;3.08;1.00;;;13.00;49.10;;;;;;5158696;27;20473;-69
2022/04/27 06:37:00;;;;;;;3.28;1.17;;;13.00;49.10;;;;;;5158076;27;20165;-64
2022/04/27 06:39:25;;;;;;;2.10;1.02;;;13.10;49.10;;;;;;5176950;27;20093;-69
2022/04/27 06:41:51;;;;;;;1.80;0.80;;;13.10;49.10;;;;;;5176760;27;20038;-69
2022/04/27 06:44:17;;;;;;;1.73;1.40;;;13.10;49.10;;;;;;5157728;27;20046;-68
2022/04/27 06:46:42;;;;;;;2.17;1.08;;;13.10;49.00;;;;;;5157963;27;20078;-64
2022/04/27 06:49:08;;;;;;;2.88;0.98;;;13.10;49.10;;;;;;5157749;27;20113;-64
2022/04/27 06:51:34;;;;;;;2.05;1.15;;;13.20;49.00;;;;;;5158130;27;20111;-69
2022/04/27 06:53:59;;;;;;;1.52;0.95;;;13.10;49.00;;;;;;5157908;27;20034;-66
2022/04/27 06:56:25;;;;;;;2.15;0.73;;;13.20;49.00;;;;;;5158005;27;20026;-64
2022/04/27 06:58:50;;;;;;;1.70;1.27;;;13.20;49.00;;;;;;5157487;27;20481;-69
2022/04/27 07:01:18;;;;;;;1.60;0.90;;;13.20;48.90;;;;;;5176756;27;20117;-68
2022/04/27 07:03:44;;;;;;;2.72;0.80;;;13.20;48.90;;;;;;5157373;27;20567;-66
2022/04/27 07:06:10;;;;;;;1.30;0.80;;;13.30;48.90;;;;;;5157597;27;20054;-69
2022/04/27 07:08:36;;;;;;;1.73;1.00;;;13.30;48.80;;;;;;5157772;27;20035;-64
2022/04/27 07:11:02;;;;;;;1.52;0.85;;;13.30;48.80;;;;;;5157748;27;20477;-64
2022/04/27 07:13:29;;;;;;;2.58;0.90;;;13.40;48.80;;;;;;5157500;27;20401;-67
2022/04/27 07:16:00;;;;;;;1.42;0.90;;;13.40;48.70;;;;;;5157500;27;20052;-68
2022/04/27 07:18:27;;;;;;;1.67;0.82;;;13.40;48.60;;;;;;5157282;27;20053;-64
2022/04/27 07:20:56;;;;;;;1.67;0.80;;;13.40;48.50;;;;;;5175688;27;20497;-68
2022/04/27 07:23:22;;;;;;;1.55;0.77;;;13.50;48.40;;;;;;5175795;27;20038;-68
2022/04/27 07:25:48;;;;;;;1.75;1.27;;;13.50;48.30;;;;;;5175778;27;20122;-69
2022/04/27 07:28:14;;;;;;;1.90;0.55;;;13.50;48.20;;;;;;5157363;27;20031;-67
2022/04/27 07:30:39;;;;;;;1.15;0.70;;;13.60;48.10;;;;;;5175769;27;20496;-68
2022/04/27 07:33:05;;;;;;;0.93;0.47;;;13.70;48.00;;;;;;5156965;27;20389;-67
2022/04/27 07:35:31;;;;;;;0.95;0.57;;;13.70;47.90;;;;;;5156856;27;20053;-69
2022/04/27 07:37:56;;;;;;;1.48;0.55;;;13.70;47.70;;;;;;5175806;27;20046;-64
2022/04/27 07:40:22;;;;;;;1.48;0.88;;;13.70;47.60;;;;;;5156866;27;20038;-66
2022/04/27 07:42:48;;;;;;;1.23;0.60;;;13.70;47.50;;;;;;5156834;27;20034;-68
2022/04/27 07:45:15;;;;;;;1.38;0.50;;;13.80;47.50;;;;;;5174919;27;20065;-63
2022/04/27 07:47:42;;;;;;;1.40;0.40;;;13.80;47.30;;;;;;5175459;27;20038;-69
2022/04/27 07:50:11;;;;;;;1.50;0.70;;;13.80;47.20;;;;;;5156260;27;20038;-71
2022/04/27 07:52:42;;;;;;;1.10;0.52;;;13.80;47.10;;;;;;5156856;27;20472;-69
2022/04/27 07:55:08;;;;;;;0.82;0.73;;;13.90;47.10;;;;;;5156921;27;20579;-69
2022/04/27 07:57:34;;;;;;;1.10;0.50;;;13.90;47.00;;;;;;5156495;27;20038;-69
2022/04/27 08:00:01;;;;;;;1.45;0.40;;;13.90;46.90;;;;;;5156580;27;20034;-68
2022/04/27 08:02:27;;;;;;;1.42;0.50;;;13.90;46.80;;;;;;5156413;27;20042;-64
2022/04/27 08:04:53;;;;;;;1.65;0.50;;;13.90;46.70;;;;;;5156372;27;20077;-69
2022/04/27 08:07:19;;;;;;;1.20;0.50;;;13.90;46.70;;;;;;5156575;27;20040;-68
2022/04/27 08:09:45;;;;;;;0.88;0.60;;;13.90;46.60;;;;;;5156289;27;20113;-63
2022/04/27 08:12:10;;;;;;;1.38;0.30;;;13.90;46.60;;;;;;5156583;27;20046;-66
2022/04/27 08:14:36;;;;;;;1.48;0.60;;;13.90;46.50;;;;;;5156290;27;20423;-69
2022/04/27 08:17:02;;;;;;;0.98;0.82;;;13.90;46.40;;;;;;5174932;27;20045;-70
2022/04/27 08:19:28;;;;;;;1.80;0.85;;;13.90;46.40;;;;;;5156193;27;20492;-64
2022/04/27 08:21:55;;;;;;;1.55;0.65;;;13.90;46.30;;;;;;5174630;27;20038;-63
2022/04/27 08:24:22;;;;;;;1.00;0.50;;;13.90;46.20;;;;;;5156060;27;20505;-69
2022/04/27 08:26:48;;;;;;;2.35;0.55;;;13.90;46.20;;;;;;5155883;27;20069;-64
2022/04/27 08:29:14;;;;;;;1.23;0.60;;;14.00;46.10;;;;;;5155915;27;20039;-67
2022/04/27 08:31:40;;;;;;;1.73;0.50;;;13.90;46.00;;;;;;5174659;27;20037;-69
2022/04/27 08:34:07;;;;;;;1.73;0.35;;;14.00;45.90;;;;;;5154814;27;20388;-69
2022/04/27 08:36:33;;;;;;;1.48;0.50;;;14.00;45.90;;;;;;5155685;27;20038;-64
2022/04/27 08:39:00;;;;;;;0.88;0.40;;;14.00;45.70;;;;;;5163361;27;20077;-70
2022/04/27 08:41:28;;;;;;;1.25;0.40;;;14.10;45.60;;;;;;5183736;27;20044;-68
2022/04/27 08:43:54;;;;;;;2.47;0.47;;;14.10;45.50;;;;;;5185081;27;20374;-65
2022/04/27 08:46:21;;;;;;;1.25;0.35;;;14.20;45.30;;;;;;5165970;27;20045;-69
2022/04/27 08:48:48;;;;;;;2.30;0.75;;;14.30;45.10;;;;;;5158801;27;20034;-69
2022/04/27 08:51:14;;;;;;;1.35;0.30;;;14.40;44.90;;;;;;5174395;27;20090;-67
2022/04/27 08:53:42;;;;;;;1.27;0.30;;;14.50;44.70;;;;;;5174805;27;20034;-71
2022/04/27 08:56:08;;;;;;;0.63;0.40;;;14.50;44.50;;;;;;5161027;27;20121;-69
2022/04/27 08:58:34;;;;;;;1.23;0.30;;;14.60;44.40;;;;;;5165276;27;20121;-63
2022/04/27 09:00:59;;;;;;;1.60;0.50;;;14.60;44.30;;;;;;5169058;27;20041;-63
2022/04/27 09:06:10;;;;;;;1.23;0.50;;;14.60;44.20;;;;;;5180358;27;147160;-69
2022/04/27 09:11:18;;;;;;;1.75;0.40;;;14.80;43.90;;;;;;5128790;27;20143;-68
2022/04/27 09:13:48;;;;;;;2.17;0.40;;;14.90;43.60;;;;;;5145996;27;20441;-68
2022/04/27 09:16:14;;;;;;;0.65;0.30;;;14.90;43.50;;;;;;5128186;28;20386;-69
2022/04/27 09:24:54;;;;;;;0.90;0.40;;;15.00;43.20;;;;;;5137357;27;20129;-65
2022/04/27 09:27:21;;;;;;;2.05;0.40;;;15.00;43.10;;;;;;5120257;28;20417;-69
2022/04/27 09:29:56;;;;;;;1.00;0.50;;;15.00;43.00;;;;;;5110712;28;20507;-69
2022/04/27 09:32:21;;;;;;;1.63;0.40;;;15.00;43.00;;;;;;5116678;28;20115;-66
2022/04/27 09:34:49;;;;;;;0.73;0.30;;;15.00;42.90;;;;;;5119366;28;20077;-62
2022/04/27 09:37:20;;;;;;;1.67;0.40;;;15.00;42.90;;;;;;5118549;28;20032;-63
2022/04/27 09:39:58;;;;;;;1.55;0.75;;;15.00;42.90;;;;;;5125811;27;20123;-62
2022/04/27 09:42:30;;;;;;;1.33;0.30;;;15.00;42.80;;;;;;5108269;28;20048;-63
2022/04/27 09:45:12;;;;;;;2.55;0.38;;;15.00;42.70;;;;;;5108588;28;20042;-63
2022/04/27 09:48:00;;;;;;;0.98;0.50;;;15.10;42.70;;;;;;5109512;28;20040;-69
2022/04/27 09:50:26;;;;;;;1.10;0.20;;;15.10;42.50;;;;;;5109370;28;20043;-68
2022/04/27 09:52:54;;;;;;;0.88;0.20;;;15.10;42.50;;;;;;5108312;28;20390;-62
2022/04/27 09:55:22;;;;;;;1.02;0.30;;;15.10;42.50;;;;;;5108283;28;20089;-65
2022/04/27 09:57:57;;;;;;;1.48;0.30;;;15.10;42.50;;;;;;5107952;28;20047;-64
2022/04/27 10:00:25;;;;;;;1.27;0.30;;;15.10;42.60;;;;;;5125021;28;20039;-69
2022/04/27 10:02:52;;;;;;;2.65;0.40;;;15.10;42.50;;;;;;5108958;28;20050;-68
2022/04/27 10:05:22;;;;;;;0.93;0.38;;;15.10;42.50;;;;;;5107806;28;20044;-62
2022/04/27 10:07:50;;;;;;;2.20;0.30;;;15.10;42.50;;;;;;5107780;28;20089;-68
2022/04/27 10:10:17;;;;;;;0.57;0.30;;;15.10;42.50;;;;;;5109047;28;20051;-64
2022/04/27 10:12:42;;;;;;;1.05;0.30;;;15.00;42.50;;;;;;5124801;28;20114;-63
2022/04/27 10:15:08;;;;;;;0.50;0.30;;;15.10;42.50;;;;;;5124628;28;20127;-63
2022/04/27 10:17:34;;;;;;;1.35;0.30;;;15.00;42.40;;;;;;5109104;28;20067;-64
2022/04/27 10:26:29;;;;;;;0.88;0.45;;;15.00;42.40;;;;;;5129292;27;20491;-69
2022/04/27 10:28:56;;;;;;;0.93;0.50;;;15.00;42.40;;;;;;5128975;28;20047;-69
2022/04/27 10:34:25;;;;;;;1.20;0.30;;;15.00;42.30;;;;;;5170600;27;20158;-64
2022/04/27 10:36:54;;;;;;;1.50;0.40;;;15.00;42.40;;;;;;5151126;27;20399;-69
2022/04/27 10:39:22;;;;;;;1.20;0.30;;;15.10;42.40;;;;;;5150956;27;20039;-69
2022/04/27 10:47:35;;;;;;;0.88;0.30;;;15.00;42.30;;;;;;5129186;27;20142;-63
2022/04/27 10:50:29;;;;;;;0.90;0.20;;;15.10;42.00;;;;;;5146516;27;20047;-69
2022/04/27 10:52:56;;;;;;;1.25;0.30;;;15.10;42.00;;;;;;5128821;27;20526;-62
2022/04/27 11:01:18;;;;;;;0.77;0.35;;;15.10;42.10;;;;;;5162148;27;934977;-69
2022/04/27 11:03:52;;;;;;;0.82;0.40;;;15.20;42.00;;;;;;5173740;27;20042;-69
2022/04/27 11:06:19;;;;;;;1.20;0.40;;;15.20;42.00;;;;;;5192099;27;20046;-67
2022/04/27 11:09:02;;;;;;;0.93;0.40;;;15.20;42.00;;;;;;5174010;27;20050;-65
2022/04/27 11:11:28;;;;;;;1.35;0.32;;;15.20;41.90;;;;;;5173814;27;20054;-64
2022/04/27 11:14:00;;;;;;;0.75;0.20;;;15.20;41.90;;;;;;5174080;27;20045;-63
2022/04/27 11:16:26;;;;;;;1.65;0.40;;;15.20;41.90;;;;;;5192565;27;20038;-68
2022/04/27 11:18:55;;;;;;;0.50;0.30;;;15.20;41.90;;;;;;5192748;27;20026;-67
2022/04/27 11:21:22;;;;;;;0.50;0.20;;;15.20;41.90;;;;;;5173464;27;20086;-62
2022/04/27 11:23:48;;;;;;;1.33;0.30;;;15.20;41.90;;;;;;5173786;27;20378;-63
2022/04/27 11:26:14;;;;;;;0.90;0.20;;;15.20;41.90;;;;;;5192391;27;20030;-68
2022/04/27 11:28:43;;;;;;;1.67;0.30;;;15.20;41.80;;;;;;5173616;27;20446;-63
2022/04/27 11:31:13;;;;;;;0.40;0.20;;;15.20;41.80;;;;;;5173762;27;20045;-68
2022/04/27 11:33:40;;;;;;;1.10;0.30;;;15.20;41.80;;;;;;5192257;27;20362;-62
2022/04/27 11:36:19;;;;;;;0.93;0.43;;;15.20;41.70;;;;;;5173480;27;20042;-64
2022/04/27 11:38:46;;;;;;;1.08;0.75;;;15.20;41.70;;;;;;5173160;27;20488;-67
2022/04/27 11:41:15;;;;;;;1.02;0.47;;;15.20;41.60;;;;;;5173186;27;20038;-66
2022/04/27 11:43:44;;;;;;;1.90;0.35;;;15.30;41.70;;;;;;5173315;27;20388;-68
2022/04/27 11:46:10;;;;;;;1.95;0.30;;;15.30;41.70;;;;;;5173185;27;20037;-69
2022/04/27 11:48:36;;;;;;;1.27;0.30;;;15.30;41.70;;;;;;5173416;27;20038;-69
2022/04/27 11:51:03;;;;;;;2.92;0.88;;;15.30;41.70;;;;;;5192238;27;20026;-63
2022/04/27 11:53:29;;;;;;;0.40;0.20;;;15.30;41.70;;;;;;5173105;27;20473;-68
2022/04/27 11:55:57;;;;;;;0.73;0.20;;;15.30;41.70;;;;;;5172944;27;20469;-65
2022/04/27 11:58:25;;;;;;;0.77;0.30;;;15.20;41.70;;;;;;5191590;27;20034;-68
2022/04/27 12:03:41;;;;;;;1.05;0.30;;;15.30;41.70;;;;;;5151008;27;20393;-63
2022/04/27 12:06:07;;;;;;;1.13;0.28;;;15.30;41.70;;;;;;5129026;28;20047;-68
2022/04/27 12:08:33;;;;;;;1.65;0.30;;;15.30;41.70;;;;;;5129006;28;20050;-69
2022/04/27 12:11:01;;;;;;;1.10;0.30;;;15.30;41.70;;;;;;5129076;28;20104;-67
2022/04/27 12:13:27;;;;;;;3.17;0.55;;;15.30;41.70;;;;;;5129175;28;20040;-63
2022/04/27 12:15:54;;;;;;;1.17;0.30;;;15.30;41.70;;;;;;5128990;28;20040;-67
2022/04/27 12:18:25;;;;;;;0.68;0.38;;;15.30;41.60;;;;;;5128873;28;20043;-62
2022/04/27 12:20:52;;;;;;;;;;;15.30;41.60;;;;;;5129313;28;20039;-68
2022/04/27 12:23:25;;;;;;;1.20;0.30;;;15.30;41.60;;;;;;5128723;28;20431;-69
2022/04/27 12:28:33;;;;;;;0.82;0.30;;;15.30;41.60;;;;;;5089440;27;20443;-69
2022/04/27 12:31:02;;;;;;;1.35;0.30;;;15.30;41.60;;;;;;5088042;28;20135;-65
2022/04/27 12:33:33;;;;;;;0.90;0.50;;;15.30;41.60;;;;;;5088341;28;20514;-65
2022/04/27 12:39:07;;;;;;;1.42;0.30;;;15.30;41.70;;;;;;5087832;28;20052;-64
2022/04/27 12:41:39;;;;;;;0.80;0.20;;;15.30;41.60;;;;;;5087746;28;20072;-71
2022/04/27 12:44:06;;;;;;;0.68;0.30;;;15.30;41.70;;;;;;5089183;28;20448;-66
2022/04/27 12:46:31;;;;;;;1.92;0.57;;;15.30;41.70;;;;;;5088901;28;20044;-65
2022/04/27 12:49:02;;;;;;;2.45;0.40;;;15.30;41.70;;;;;;5088005;28;20070;-65
2022/04/27 12:51:28;;;;;;;;;;;15.30;41.70;;;;;;5089407;28;20527;-64
2022/04/27 12:53:54;;;;;;;0.98;0.25;;;15.30;41.70;;;;;;5087948;28;19924;-66
2022/04/27 12:56:22;;;;;;;0.80;0.22;;;15.30;41.80;;;;;;5087708;28;20048;-70
2022/04/27 12:59:05;;;;;;;2.08;0.28;;;15.30;41.80;;;;;;5087837;28;20044;-67
2022/04/27 13:01:31;;;;;;;2.38;0.30;;;15.30;41.80;;;;;;5087541;28;20051;-71
2022/04/27 13:03:57;;;;;;;1.05;0.38;;;15.30;41.90;;;;;;5087500;28;20040;-71
2022/04/27 13:06:29;;;;;;;0.77;0.20;;;15.30;41.90;;;;;;5087613;28;20687;-65
2022/04/27 13:11:55;;;;;;;1.00;0.30;;;15.30;42.00;;;;;;5087391;28;20040;-69
2022/04/27 13:11:58;;;;;;;1.23;0.20;;;15.20;42.00;;;;;;5088336;28;20048;-73
2022/04/27 13:14:26;;;;;;;1.65;0.30;;;15.20;42.00;;;;;;5087377;28;20036;-71
2022/04/27 13:16:54;;;;;;;0.95;0.40;;;15.20;42.00;;;;;;5087161;28;20048;-65
2022/04/27 13:19:20;;;;;;;0.57;0.30;;;15.20;42.00;;;;;;5087248;28;20056;-66
2022/04/27 13:21:47;;;;;;;0.50;0.20;;;15.20;42.00;;;;;;5087269;28;20048;-65
2022/04/27 13:24:13;;;;;;;0.90;0.30;;;15.20;42.10;;;;;;5087127;28;20048;-64
2022/04/27 13:26:39;;;;;;;0.90;0.22;;;15.20;42.00;;;;;;5086658;28;20053;-70
2022/04/27 13:29:04;;;;;;;1.63;0.30;;;15.20;42.00;;;;;;5087244;28;20040;-70
2022/04/27 13:31:31;;;;;;;2.13;0.55;;;15.20;42.00;;;;;;5087054;28;20090;-64
2022/04/27 13:33:56;;;;;;;3.75;0.35;;;15.20;42.00;;;;;;5088235;28;20121;-70
2022/04/27 13:36:22;;;;;;;1.40;0.30;;;15.20;42.10;;;;;;5086963;28;20538;-71
2022/04/27 13:38:48;;;;;;;1.50;0.30;;;15.20;42.10;;;;;;5080271;28;20036;-66
2022/04/27 13:41:14;;;;;;;1.35;0.40;;;15.20;42.10;;;;;;5074483;28;20076;-71